sensor_id;sensor_type;location;lat;lon;timestamp;temperature;humidity
14000;DHT22;7075;53.574;10.054;2022-12-18T00:01:20;-2.00;99.90
14000;DHT22;7075;53.574;10.054;2022-12-18T00:03:46;-2.10;99.90
14000;DHT22;7075;53.574;10.054;2022-12-18T00:06:11;-2.10;99.90
14000;DHT22;7075;53.574;10.054;2022-12-18T00:08:39;-2.00;99.90
14000;DHT22;7075;53.574;10.054;2022-12-18T00:11:08;-2.10;99.90
14000;DHT22;7075;53.574;10.054;2022-12-18T00:13:35;-2.10;99.90
14000;DHT22;7075;53.574;10.054;2022-12-18T00:16:02;-2.10;99.90
14000;DHT22;7075;53.574;10.054;2022-12-18T00:18:27;-2.10;99.90
14000;DHT22;7075;53.574;10.054;2022-12-18T00:20:53;-2.00;99.90
14000;DHT22;7075;53.574;10.054;2022-12-18T00:23:18;-2.10;99.90
14000;DHT22;7075;53.574;10.054;2022-12-18T00:25:44;-2.20;99.90
14000;DHT22;7075;53.574;10.054;2022-12-18T00:28:09;-2.20;99.90
14000;DHT22;7075;53.574;10.054;2022-12-18T00:30:35;-2.20;99.90
14000;DHT22;7075;53.574;10.054;2022-12-18T00:33:00;-2.40;99.90
14000;DHT22;7075;53.574;10.054;2022-12-18T00:35:25;-2.30;99.90
14000;DHT22;7075;53.574;10.054;2022-12-18T00:37:51;-2.30;99.90
14000;DHT22;7075;53.574;10.054;2022-12-18T00:40:16;-2.30;99.90
14000;DHT22;7075;53.574;10.054;2022-12-18T00:42:42;-2.40;99.90
14000;DHT22;7075;53.574;10.054;2022-12-18T00:45:23;-2.30;99.90
14000;DHT22;7075;53.574;10.054;2022-12-18T00:47:49;-2.40;99.90
14000;DHT22;7075;53.574;10.054;2022-12-18T00:50:15;-2.40;99.90
14000;DHT22;7075;53.574;10.054;2022-12-18T00:52:40;-2.40;99.90
14000;DHT22;7075;53.574;10.054;2022-12-18T00:55:06;-2.40;99.90
14000;DHT22;7075;53.574;10.054;2022-12-18T00:57:31;-2.40;99.90
14000;DHT22;7075;53.574;10.054;2022-12-18T00:59:57;-2.50;99.90
14000;DHT22;7075;53.574;10.054;2022-12-18T01:02:22;-2.50;99.90
14000;DHT22;7075;53.574;10.054;2022-12-18T01:04:48;-2.50;99.90
14000;DHT22;7075;53.574;10.054;2022-12-18T01:07:13;-2.50;99.90
14000;DHT22;7075;53.574;10.054;2022-12-18T01:09:39;-2.50;99.90
14000;DHT22;7075;53.574;10.054;2022-12-18T01:12:04;-2.60;99.90
14000;DHT22;7075;53.574;10.054;2022-12-18T01:14:30;-2.60;99.90
14000;DHT22;7075;53.574;10.054;2022-12-18T01:16:55;-2.60;99.90
14000;DHT22;7075;53.574;10.054;2022-12-18T01:19:21;-2.50;99.90
14000;DHT22;7075;53.574;10.054;2022-12-18T01:21:46;-2.50;99.90
14000;DHT22;7075;53.574;10.054;2022-12-18T01:24:12;-2.60;99.90
14000;DHT22;7075;53.574;10.054;2022-12-18T01:26:37;-2.60;99.90
14000;DHT22;7075;53.574;10.054;2022-12-18T01:29:03;-2.70;99.90
14000;DHT22;7075;53.574;10.054;2022-12-18T01:31:29;-2.80;99.90
14000;DHT22;7075;53.574;10.054;2022-12-18T01:33:55;-2.80;99.90
14000;DHT22;7075;53.574;10.054;2022-12-18T01:36:31;-2.90;99.90
14000;DHT22;7075;53.574;10.054;2022-12-18T01:38:59;-2.80;99.90
14000;DHT22;7075;53.574;10.054;2022-12-18T01:41:26;-2.70;99.90
14000;DHT22;7075;53.574;10.054;2022-12-18T01:43:53;-2.80;99.90
14000;DHT22;7075;53.574;10.054;2022-12-18T01:46:19;-2.80;99.90
14000;DHT22;7075;53.574;10.054;2022-12-18T01:48:46;-2.90;99.90
14000;DHT22;7075;53.574;10.054;2022-12-18T01:51:13;-2.90;99.90
14000;DHT22;7075;53.574;10.054;2022-12-18T01:53:39;-3.10;99.90
14000;DHT22;7075;53.574;10.054;2022-12-18T01:56:05;-3.10;99.90
14000;DHT22;7075;53.574;10.054;2022-12-18T02:01:25;-3.00;99.90
14000;DHT22;7075;53.574;10.054;2022-12-18T02:03:51;-3.00;99.90
14000;DHT22;7075;53.574;10.054;2022-12-18T02:08:55;-3.00;99.90
14000;DHT22;7075;53.574;10.054;2022-12-18T02:11:37;-3.10;99.90
14000;DHT22;7075;53.574;10.054;2022-12-18T02:14:09;-3.10;99.90
14000;DHT22;7075;53.574;10.054;2022-12-18T02:19:36;-3.10;99.90
14000;DHT22;7075;53.574;10.054;2022-12-18T02:22:07;-3.00;99.90
14000;DHT22;7075;53.574;10.054;2022-12-18T02:27:06;-3.00;99.90
14000;DHT22;7075;53.574;10.054;2022-12-18T02:29:39;-2.90;99.90
14000;DHT22;7075;53.574;10.054;2022-12-18T02:32:08;-2.90;99.90
14000;DHT22;7075;53.574;10.054;2022-12-18T02:34:37;-3.20;99.90
14000;DHT22;7075;53.574;10.054;2022-12-18T02:37:03;-3.20;99.90
14000;DHT22;7075;53.574;10.054;2022-12-18T02:39:30;-3.20;99.90
14000;DHT22;7075;53.574;10.054;2022-12-18T02:41:57;-3.20;99.90
14000;DHT22;7075;53.574;10.054;2022-12-18T02:44:23;-3.20;99.90
14000;DHT22;7075;53.574;10.054;2022-12-18T02:46:50;-3.10;99.90
14000;DHT22;7075;53.574;10.054;2022-12-18T02:49:21;-3.20;99.90
14000;DHT22;7075;53.574;10.054;2022-12-18T02:51:50;-3.10;99.90
14000;DHT22;7075;53.574;10.054;2022-12-18T02:56:48;-3.10;99.90
14000;DHT22;7075;53.574;10.054;2022-12-18T02:59:17;-3.20;99.90
14000;DHT22;7075;53.574;10.054;2022-12-18T03:04:37;-3.10;99.90
14000;DHT22;7075;53.574;10.054;2022-12-18T03:07:05;-3.10;99.90
14000;DHT22;7075;53.574;10.054;2022-12-18T03:09:32;-3.10;99.90
14000;DHT22;7075;53.574;10.054;2022-12-18T03:12:06;-3.20;99.90
14000;DHT22;7075;53.574;10.054;2022-12-18T03:14:50;-3.10;99.90
14000;DHT22;7075;53.574;10.054;2022-12-18T03:17:18;-3.10;99.90
14000;DHT22;7075;53.574;10.054;2022-12-18T03:19:45;-3.10;99.90
14000;DHT22;7075;53.574;10.054;2022-12-18T03:22:12;-3.10;99.90
14000;DHT22;7075;53.574;10.054;2022-12-18T03:24:38;-3.10;99.90
14000;DHT22;7075;53.574;10.054;2022-12-18T03:27:06;-3.10;99.90
14000;DHT22;7075;53.574;10.054;2022-12-18T03:29:36;-3.20;99.90
14000;DHT22;7075;53.574;10.054;2022-12-18T03:32:10;-3.20;99.90
14000;DHT22;7075;53.574;10.054;2022-12-18T03:34:37;-3.20;99.90
14000;DHT22;7075;53.574;10.054;2022-12-18T03:37:04;-3.20;99.90
14000;DHT22;7075;53.574;10.054;2022-12-18T03:39:30;-3.20;99.90
14000;DHT22;7075;53.574;10.054;2022-12-18T03:42:01;-3.20;99.90
14000;DHT22;7075;53.574;10.054;2022-12-18T03:44:33;-3.30;99.90
14000;DHT22;7075;53.574;10.054;2022-12-18T03:47:09;-3.40;99.90
14000;DHT22;7075;53.574;10.054;2022-12-18T03:49:40;-3.40;99.90
14000;DHT22;7075;53.574;10.054;2022-12-18T03:54:33;-3.40;99.90
14000;DHT22;7075;53.574;10.054;2022-12-18T03:57:06;-3.40;99.90
14000;DHT22;7075;53.574;10.054;2022-12-18T03:59:32;-3.30;99.90
14000;DHT22;7075;53.574;10.054;2022-12-18T04:01:58;-3.30;99.90
14000;DHT22;7075;53.574;10.054;2022-12-18T04:04:25;-3.40;99.90
14000;DHT22;7075;53.574;10.054;2022-12-18T04:06:52;-3.50;99.90
14000;DHT22;7075;53.574;10.054;2022-12-18T04:09:19;-3.60;99.90
14000;DHT22;7075;53.574;10.054;2022-12-18T04:11:45;-3.70;99.90
14000;DHT22;7075;53.574;10.054;2022-12-18T04:14:11;-3.80;99.90
14000;DHT22;7075;53.574;10.054;2022-12-18T04:16:37;-4.00;99.90
14000;DHT22;7075;53.574;10.054;2022-12-18T04:19:03;-3.90;99.90
14000;DHT22;7075;53.574;10.054;2022-12-18T04:21:28;-3.90;99.90
14000;DHT22;7075;53.574;10.054;2022-12-18T04:23:54;-3.80;99.90
14000;DHT22;7075;53.574;10.054;2022-12-18T04:26:19;-3.70;99.90
14000;DHT22;7075;53.574;10.054;2022-12-18T04:28:45;-3.70;99.90
14000;DHT22;7075;53.574;10.054;2022-12-18T04:34:14;-3.80;99.90
14000;DHT22;7075;53.574;10.054;2022-12-18T04:36:39;-3.80;99.90
14000;DHT22;7075;53.574;10.054;2022-12-18T04:39:05;-3.80;99.90
14000;DHT22;7075;53.574;10.054;2022-12-18T04:41:30;-3.70;99.90
14000;DHT22;7075;53.574;10.054;2022-12-18T04:43:55;-3.70;99.90
14000;DHT22;7075;53.574;10.054;2022-12-18T04:46:21;-3.60;99.90
14000;DHT22;7075;53.574;10.054;2022-12-18T04:48:46;-3.60;99.90
14000;DHT22;7075;53.574;10.054;2022-12-18T04:51:12;-3.60;99.90
14000;DHT22;7075;53.574;10.054;2022-12-18T04:53:37;-3.60;99.90
14000;DHT22;7075;53.574;10.054;2022-12-18T04:56:07;-3.80;99.90
14000;DHT22;7075;53.574;10.054;2022-12-18T04:58:32;-3.80;99.90
14000;DHT22;7075;53.574;10.054;2022-12-18T05:00:58;-3.70;99.90
14000;DHT22;7075;53.574;10.054;2022-12-18T05:03:24;-3.70;99.90
14000;DHT22;7075;53.574;10.054;2022-12-18T05:05:49;-3.70;99.90
14000;DHT22;7075;53.574;10.054;2022-12-18T05:08:15;-3.80;99.90
14000;DHT22;7075;53.574;10.054;2022-12-18T05:10:41;-3.80;99.90
14000;DHT22;7075;53.574;10.054;2022-12-18T05:13:06;-3.80;99.90
14000;DHT22;7075;53.574;10.054;2022-12-18T05:15:32;-3.80;99.90
14000;DHT22;7075;53.574;10.054;2022-12-18T05:17:58;-3.80;99.90
14000;DHT22;7075;53.574;10.054;2022-12-18T05:20:24;-3.80;99.90
14000;DHT22;7075;53.574;10.054;2022-12-18T05:22:50;-3.80;99.90
14000;DHT22;7075;53.574;10.054;2022-12-18T05:25:15;-3.80;99.90
14000;DHT22;7075;53.574;10.054;2022-12-18T05:27:41;-3.80;99.90
14000;DHT22;7075;53.574;10.054;2022-12-18T05:30:07;-3.90;99.90
14000;DHT22;7075;53.574;10.054;2022-12-18T05:32:32;-3.90;99.90
14000;DHT22;7075;53.574;10.054;2022-12-18T05:34:58;-3.80;99.90
14000;DHT22;7075;53.574;10.054;2022-12-18T05:37:23;-3.80;99.90
14000;DHT22;7075;53.574;10.054;2022-12-18T05:39:49;-3.80;99.90
14000;DHT22;7075;53.574;10.054;2022-12-18T05:42:14;-3.80;99.90
14000;DHT22;7075;53.574;10.054;2022-12-18T05:44:40;-3.80;99.90
14000;DHT22;7075;53.574;10.054;2022-12-18T05:47:05;-3.80;99.90
14000;DHT22;7075;53.574;10.054;2022-12-18T05:49:31;-3.80;99.90
14000;DHT22;7075;53.574;10.054;2022-12-18T05:51:56;-3.90;99.90
14000;DHT22;7075;53.574;10.054;2022-12-18T05:54:22;-3.90;99.90
14000;DHT22;7075;53.574;10.054;2022-12-18T05:56:47;-3.90;99.90
14000;DHT22;7075;53.574;10.054;2022-12-18T05:59:12;-3.90;99.90
14000;DHT22;7075;53.574;10.054;2022-12-18T06:01:38;-3.90;99.90
14000;DHT22;7075;53.574;10.054;2022-12-18T06:04:03;-3.90;99.90
14000;DHT22;7075;53.574;10.054;2022-12-18T06:06:29;-3.80;99.90
14000;DHT22;7075;53.574;10.054;2022-12-18T06:08:55;-3.80;99.90
14000;DHT22;7075;53.574;10.054;2022-12-18T06:11:22;-3.80;99.90
14000;DHT22;7075;53.574;10.054;2022-12-18T06:13:51;-3.80;99.90
14000;DHT22;7075;53.574;10.054;2022-12-18T06:16:17;-3.80;99.90
14000;DHT22;7075;53.574;10.054;2022-12-18T06:18:42;-3.90;99.90
14000;DHT22;7075;53.574;10.054;2022-12-18T06:21:08;-3.80;99.90
14000;DHT22;7075;53.574;10.054;2022-12-18T06:23:34;-3.80;99.90
14000;DHT22;7075;53.574;10.054;2022-12-18T06:26:03;-3.80;99.90
14000;DHT22;7075;53.574;10.054;2022-12-18T06:28:28;-3.80;99.90
14000;DHT22;7075;53.574;10.054;2022-12-18T06:30:53;-3.90;99.90
14000;DHT22;7075;53.574;10.054;2022-12-18T06:33:19;-3.90;99.90
14000;DHT22;7075;53.574;10.054;2022-12-18T06:35:44;-3.90;99.90
14000;DHT22;7075;53.574;10.054;2022-12-18T06:38:10;-3.90;99.90
14000;DHT22;7075;53.574;10.054;2022-12-18T06:40:37;-3.90;99.90
14000;DHT22;7075;53.574;10.054;2022-12-18T06:43:02;-3.90;99.90
14000;DHT22;7075;53.574;10.054;2022-12-18T06:45:28;-3.90;99.90
14000;DHT22;7075;53.574;10.054;2022-12-18T06:47:53;-4.00;99.90
14000;DHT22;7075;53.574;10.054;2022-12-18T06:50:18;-4.00;99.90
14000;DHT22;7075;53.574;10.054;2022-12-18T06:52:44;-4.00;99.90
14000;DHT22;7075;53.574;10.054;2022-12-18T06:55:09;-4.10;99.90
14000;DHT22;7075;53.574;10.054;2022-12-18T06:57:35;-4.10;99.90
14000;DHT22;7075;53.574;10.054;2022-12-18T07:00:01;-4.10;99.90
14000;DHT22;7075;53.574;10.054;2022-12-18T07:02:26;-4.10;99.90
14000;DHT22;7075;53.574;10.054;2022-12-18T07:04:52;-4.10;99.90
14000;DHT22;7075;53.574;10.054;2022-12-18T07:07:18;-4.20;99.90
14000;DHT22;7075;53.574;10.054;2022-12-18T07:09:43;-4.20;99.90
14000;DHT22;7075;53.574;10.054;2022-12-18T07:12:09;-4.20;99.90
14000;DHT22;7075;53.574;10.054;2022-12-18T07:14:34;-4.20;99.90
14000;DHT22;7075;53.574;10.054;2022-12-18T07:17:00;-4.20;99.90
14000;DHT22;7075;53.574;10.054;2022-12-18T07:19:25;-4.30;99.90
14000;DHT22;7075;53.574;10.054;2022-12-18T07:21:51;-4.30;99.90
14000;DHT22;7075;53.574;10.054;2022-12-18T07:24:16;-4.40;99.90
14000;DHT22;7075;53.574;10.054;2022-12-18T07:26:42;-4.30;99.90
14000;DHT22;7075;53.574;10.054;2022-12-18T07:29:07;-4.30;99.90
14000;DHT22;7075;53.574;10.054;2022-12-18T07:31:33;-4.20;99.90
14000;DHT22;7075;53.574;10.054;2022-12-18T07:33:58;-4.20;99.90
14000;DHT22;7075;53.574;10.054;2022-12-18T07:36:24;-4.20;99.90
14000;DHT22;7075;53.574;10.054;2022-12-18T07:38:50;-4.20;99.90
14000;DHT22;7075;53.574;10.054;2022-12-18T07:41:17;-4.30;99.90
14000;DHT22;7075;53.574;10.054;2022-12-18T07:43:43;-4.30;99.90
14000;DHT22;7075;53.574;10.054;2022-12-18T07:46:10;-4.30;99.90
14000;DHT22;7075;53.574;10.054;2022-12-18T07:48:36;-4.30;99.90
14000;DHT22;7075;53.574;10.054;2022-12-18T07:51:02;-4.20;99.90
14000;DHT22;7075;53.574;10.054;2022-12-18T07:53:29;-4.30;99.90
14000;DHT22;7075;53.574;10.054;2022-12-18T07:55:58;-4.30;99.90
14000;DHT22;7075;53.574;10.054;2022-12-18T07:58:24;-4.30;99.90
14000;DHT22;7075;53.574;10.054;2022-12-18T08:00:49;-4.30;99.90
14000;DHT22;7075;53.574;10.054;2022-12-18T08:03:15;-4.40;99.90
14000;DHT22;7075;53.574;10.054;2022-12-18T08:05:41;-4.40;99.90
14000;DHT22;7075;53.574;10.054;2022-12-18T08:08:06;-4.50;99.90
14000;DHT22;7075;53.574;10.054;2022-12-18T08:10:31;-4.50;99.90
14000;DHT22;7075;53.574;10.054;2022-12-18T08:12:57;-4.50;99.90
14000;DHT22;7075;53.574;10.054;2022-12-18T08:15:22;-4.40;99.90
14000;DHT22;7075;53.574;10.054;2022-12-18T08:17:48;-4.40;99.90
14000;DHT22;7075;53.574;10.054;2022-12-18T08:20:13;-4.40;99.90
14000;DHT22;7075;53.574;10.054;2022-12-18T08:22:41;-4.40;99.90
14000;DHT22;7075;53.574;10.054;2022-12-18T08:25:06;-4.40;99.90
14000;DHT22;7075;53.574;10.054;2022-12-18T08:27:32;-4.40;99.90
14000;DHT22;7075;53.574;10.054;2022-12-18T08:29:57;-4.40;99.90
14000;DHT22;7075;53.574;10.054;2022-12-18T08:32:23;-4.30;99.90
14000;DHT22;7075;53.574;10.054;2022-12-18T08:34:49;-4.30;99.90
14000;DHT22;7075;53.574;10.054;2022-12-18T08:37:14;-4.30;99.90
14000;DHT22;7075;53.574;10.054;2022-12-18T08:39:40;-4.30;99.90
14000;DHT22;7075;53.574;10.054;2022-12-18T08:42:05;-4.30;99.90
14000;DHT22;7075;53.574;10.054;2022-12-18T08:44:50;-4.20;99.90
14000;DHT22;7075;53.574;10.054;2022-12-18T08:47:15;-4.30;99.90
14000;DHT22;7075;53.574;10.054;2022-12-18T08:49:40;-4.30;99.90
14000;DHT22;7075;53.574;10.054;2022-12-18T08:52:06;-4.30;99.90
14000;DHT22;7075;53.574;10.054;2022-12-18T08:54:31;-4.30;99.90
14000;DHT22;7075;53.574;10.054;2022-12-18T08:56:57;-4.20;99.90
14000;DHT22;7075;53.574;10.054;2022-12-18T08:59:22;-4.20;99.90
14000;DHT22;7075;53.574;10.054;2022-12-18T09:01:49;-4.20;99.90
14000;DHT22;7075;53.574;10.054;2022-12-18T09:04:14;-4.10;99.90
14000;DHT22;7075;53.574;10.054;2022-12-18T09:06:40;-4.10;99.90
14000;DHT22;7075;53.574;10.054;2022-12-18T09:09:05;-4.00;99.90
14000;DHT22;7075;53.574;10.054;2022-12-18T09:11:31;-3.80;99.90
14000;DHT22;7075;53.574;10.054;2022-12-18T09:13:57;-3.40;99.90
14000;DHT22;7075;53.574;10.054;2022-12-18T09:16:24;-2.90;99.90
14000;DHT22;7075;53.574;10.054;2022-12-18T09:18:50;-2.10;99.90
14000;DHT22;7075;53.574;10.054;2022-12-18T09:21:17;-1.60;99.90
14000;DHT22;7075;53.574;10.054;2022-12-18T09:23:42;-1.10;99.90
14000;DHT22;7075;53.574;10.054;2022-12-18T09:26:08;-0.80;99.90
14000;DHT22;7075;53.574;10.054;2022-12-18T09:28:34;-0.80;99.90
14000;DHT22;7075;53.574;10.054;2022-12-18T09:31:02;-1.20;99.90
14000;DHT22;7075;53.574;10.054;2022-12-18T09:33:28;-1.30;99.90
14000;DHT22;7075;53.574;10.054;2022-12-18T09:35:53;-1.50;99.90
14000;DHT22;7075;53.574;10.054;2022-12-18T09:38:19;-1.70;99.90
14000;DHT22;7075;53.574;10.054;2022-12-18T09:40:46;-1.90;99.90
14000;DHT22;7075;53.574;10.054;2022-12-18T09:43:14;-2.00;99.90
14000;DHT22;7075;53.574;10.054;2022-12-18T09:45:42;-2.10;99.90
14000;DHT22;7075;53.574;10.054;2022-12-18T09:48:28;-2.10;99.90
14000;DHT22;7075;53.574;10.054;2022-12-18T09:50:57;-2.30;99.90
14000;DHT22;7075;53.574;10.054;2022-12-18T09:53:25;-2.20;99.90
14000;DHT22;7075;53.574;10.054;2022-12-18T09:55:51;-2.30;99.90
14000;DHT22;7075;53.574;10.054;2022-12-18T09:58:19;-2.30;99.90
14000;DHT22;7075;53.574;10.054;2022-12-18T10:00:46;-2.30;99.90
14000;DHT22;7075;53.574;10.054;2022-12-18T10:03:12;-2.40;99.90
14000;DHT22;7075;53.574;10.054;2022-12-18T10:08:16;-2.30;99.90
14000;DHT22;7075;53.574;10.054;2022-12-18T10:10:48;-2.20;99.90
14000;DHT22;7075;53.574;10.054;2022-12-18T10:18:37;-1.90;99.90
14000;DHT22;7075;53.574;10.054;2022-12-18T10:21:10;-1.80;99.90
14000;DHT22;7075;53.574;10.054;2022-12-18T10:26:10;-2.00;99.90
14000;DHT22;7075;53.574;10.054;2022-12-18T10:28:38;-1.90;99.90
14000;DHT22;7075;53.574;10.054;2022-12-18T10:31:07;-1.90;99.90
14000;DHT22;7075;53.574;10.054;2022-12-18T10:33:37;-1.80;99.90
14000;DHT22;7075;53.574;10.054;2022-12-18T10:36:03;-1.80;99.90
14000;DHT22;7075;53.574;10.054;2022-12-18T10:38:30;-1.70;99.90
14000;DHT22;7075;53.574;10.054;2022-12-18T10:41:04;-1.70;99.90
14000;DHT22;7075;53.574;10.054;2022-12-18T10:43:32;-1.70;99.90
14000;DHT22;7075;53.574;10.054;2022-12-18T10:46:07;-1.80;99.90
14000;DHT22;7075;53.574;10.054;2022-12-18T10:51:16;-1.70;99.90
14000;DHT22;7075;53.574;10.054;2022-12-18T10:53:50;-1.70;99.90
14000;DHT22;7075;53.574;10.054;2022-12-18T10:56:16;-1.60;99.90
14000;DHT22;7075;53.574;10.054;2022-12-18T10:58:45;-1.40;99.90
14000;DHT22;7075;53.574;10.054;2022-12-18T11:01:20;-1.30;99.90
14000;DHT22;7075;53.574;10.054;2022-12-18T11:06:21;-1.10;99.90
14000;DHT22;7075;53.574;10.054;2022-12-18T11:11:24;-1.30;99.90
14000;DHT22;7075;53.574;10.054;2022-12-18T11:16:22;-1.00;99.90
14000;DHT22;7075;53.574;10.054;2022-12-18T11:18:49;-0.80;99.90
14000;DHT22;7075;53.574;10.054;2022-12-18T11:21:14;-0.50;99.90
14000;DHT22;7075;53.574;10.054;2022-12-18T11:23:46;-0.60;99.90
14000;DHT22;7075;53.574;10.054;2022-12-18T11:26:12;-0.70;99.90
14000;DHT22;7075;53.574;10.054;2022-12-18T11:28:43;-0.60;99.90
14000;DHT22;7075;53.574;10.054;2022-12-18T11:31:11;-0.60;99.90
14000;DHT22;7075;53.574;10.054;2022-12-18T11:33:38;-0.80;99.90
14000;DHT22;7075;53.574;10.054;2022-12-18T11:36:04;-0.70;99.90
14000;DHT22;7075;53.574;10.054;2022-12-18T11:38:37;-0.60;99.90
14000;DHT22;7075;53.574;10.054;2022-12-18T11:41:07;-0.70;99.90
14000;DHT22;7075;53.574;10.054;2022-12-18T11:46:04;-0.90;99.90
14000;DHT22;7075;53.574;10.054;2022-12-18T11:48:32;-0.80;99.90
14000;DHT22;7075;53.574;10.054;2022-12-18T11:51:00;-0.70;99.90
14000;DHT22;7075;53.574;10.054;2022-12-18T11:53:27;-0.40;99.90
14000;DHT22;7075;53.574;10.054;2022-12-18T11:55:56;-0.20;99.90
14000;DHT22;7075;53.574;10.054;2022-12-18T11:58:27;0.00;99.90
14000;DHT22;7075;53.574;10.054;2022-12-18T12:00:58;0.00;99.90
14000;DHT22;7075;53.574;10.054;2022-12-18T12:03:48;0.00;99.90
14000;DHT22;7075;53.574;10.054;2022-12-18T12:06:19;0.10;99.90
14000;DHT22;7075;53.574;10.054;2022-12-18T12:09:03;0.20;99.90
14000;DHT22;7075;53.574;10.054;2022-12-18T12:11:40;0.10;99.90
14000;DHT22;7075;53.574;10.054;2022-12-18T12:26:30;-0.70;99.90
14000;DHT22;7075;53.574;10.054;2022-12-18T12:29:05;-0.80;99.90
14000;DHT22;7075;53.574;10.054;2022-12-18T12:34:09;-0.80;99.90
14000;DHT22;7075;53.574;10.054;2022-12-18T12:36:42;-0.70;99.90
14000;DHT22;7075;53.574;10.054;2022-12-18T12:39:11;-0.60;99.90
14000;DHT22;7075;53.574;10.054;2022-12-18T12:41:39;-0.70;99.90
14000;DHT22;7075;53.574;10.054;2022-12-18T12:44:32;-0.60;99.90
14000;DHT22;7075;53.574;10.054;2022-12-18T12:47:00;-0.60;99.90
14000;DHT22;7075;53.574;10.054;2022-12-18T12:49:29;-0.50;99.90
14000;DHT22;7075;53.574;10.054;2022-12-18T12:51:59;-0.20;99.90
14000;DHT22;7075;53.574;10.054;2022-12-18T12:54:25;0.00;99.90
14000;DHT22;7075;53.574;10.054;2022-12-18T12:59:32;0.30;99.90
14000;DHT22;7075;53.574;10.054;2022-12-18T13:02:04;0.40;99.90
14000;DHT22;7075;53.574;10.054;2022-12-18T13:09:22;0.30;99.90
14000;DHT22;7075;53.574;10.054;2022-12-18T13:11:47;0.30;99.90
14000;DHT22;7075;53.574;10.054;2022-12-18T13:20:06;0.60;99.90
14000;DHT22;7075;53.574;10.054;2022-12-18T13:22:35;0.70;99.90
14000;DHT22;7075;53.574;10.054;2022-12-18T13:25:00;0.90;99.90
14000;DHT22;7075;53.574;10.054;2022-12-18T13:30:36;0.60;99.90
14000;DHT22;7075;53.574;10.054;2022-12-18T13:33:34;0.40;99.90
14000;DHT22;7075;53.574;10.054;2022-12-18T13:35:53;0.10;99.90
14000;DHT22;7075;53.574;10.054;2022-12-18T13:38:20;0.00;99.90
14000;DHT22;7075;53.574;10.054;2022-12-18T13:45:58;-0.30;99.90
14000;DHT22;7075;53.574;10.054;2022-12-18T13:48:24;-0.40;99.90
14000;DHT22;7075;53.574;10.054;2022-12-18T13:50:57;-0.40;99.90
14000;DHT22;7075;53.574;10.054;2022-12-18T13:53:34;-0.50;99.90
14000;DHT22;7075;53.574;10.054;2022-12-18T13:56:02;-0.50;99.90
14000;DHT22;7075;53.574;10.054;2022-12-18T13:58:27;-0.50;99.90
14000;DHT22;7075;53.574;10.054;2022-12-18T14:00:53;-0.50;99.90
14000;DHT22;7075;53.574;10.054;2022-12-18T14:03:26;-0.40;99.90
14000;DHT22;7075;53.574;10.054;2022-12-18T14:05:52;-0.40;99.90
14000;DHT22;7075;53.574;10.054;2022-12-18T14:08:19;-0.30;99.90
14000;DHT22;7075;53.574;10.054;2022-12-18T14:10:46;-0.30;99.90
14000;DHT22;7075;53.574;10.054;2022-12-18T14:13:15;-0.20;99.90
14000;DHT22;7075;53.574;10.054;2022-12-18T14:15:43;-0.10;99.90
14000;DHT22;7075;53.574;10.054;2022-12-18T14:20:39;0.00;99.90
14000;DHT22;7075;53.574;10.054;2022-12-18T14:23:23;-0.10;99.90
14000;DHT22;7075;53.574;10.054;2022-12-18T14:25:49;-0.10;99.90
14000;DHT22;7075;53.574;10.054;2022-12-18T14:28:15;-0.30;99.90
14000;DHT22;7075;53.574;10.054;2022-12-18T14:30:41;-0.40;99.90
14000;DHT22;7075;53.574;10.054;2022-12-18T14:33:14;-0.50;99.90
14000;DHT22;7075;53.574;10.054;2022-12-18T14:40:54;-0.60;99.90
14000;DHT22;7075;53.574;10.054;2022-12-18T14:43:20;-0.70;99.90
14000;DHT22;7075;53.574;10.054;2022-12-18T14:45:46;-0.70;99.90
14000;DHT22;7075;53.574;10.054;2022-12-18T14:48:15;-0.80;99.90
14000;DHT22;7075;53.574;10.054;2022-12-18T14:50:41;-0.80;99.90
14000;DHT22;7075;53.574;10.054;2022-12-18T14:53:17;-0.80;99.90
14000;DHT22;7075;53.574;10.054;2022-12-18T14:55:45;-0.80;99.90
14000;DHT22;7075;53.574;10.054;2022-12-18T14:58:11;-0.80;99.90
14000;DHT22;7075;53.574;10.054;2022-12-18T15:00:40;-0.80;99.90
14000;DHT22;7075;53.574;10.054;2022-12-18T15:03:06;-0.90;99.90
14000;DHT22;7075;53.574;10.054;2022-12-18T15:05:32;-0.90;99.90
14000;DHT22;7075;53.574;10.054;2022-12-18T15:07:59;-0.80;99.90
14000;DHT22;7075;53.574;10.054;2022-12-18T15:10:25;-0.90;99.90
14000;DHT22;7075;53.574;10.054;2022-12-18T15:16:07;-1.00;99.90
14000;DHT22;7075;53.574;10.054;2022-12-18T15:18:29;-1.00;99.90
14000;DHT22;7075;53.574;10.054;2022-12-18T15:20:56;-1.00;99.90
14000;DHT22;7075;53.574;10.054;2022-12-18T15:23:23;-1.00;99.90
14000;DHT22;7075;53.574;10.054;2022-12-18T15:25:59;-1.00;99.90
14000;DHT22;7075;53.574;10.054;2022-12-18T15:28:32;-1.10;99.90
14000;DHT22;7075;53.574;10.054;2022-12-18T15:30:59;-1.10;99.90
14000;DHT22;7075;53.574;10.054;2022-12-18T15:33:26;-1.10;99.90
14000;DHT22;7075;53.574;10.054;2022-12-18T15:35:58;-1.10;99.90
14000;DHT22;7075;53.574;10.054;2022-12-18T15:38:24;-1.10;99.90
14000;DHT22;7075;53.574;10.054;2022-12-18T15:40:50;-1.10;99.90
14000;DHT22;7075;53.574;10.054;2022-12-18T15:43:21;-1.10;99.90
14000;DHT22;7075;53.574;10.054;2022-12-18T15:46:11;-1.10;99.90
14000;DHT22;7075;53.574;10.054;2022-12-18T15:48:41;-1.10;99.90
14000;DHT22;7075;53.574;10.054;2022-12-18T15:51:17;-1.10;99.90
14000;DHT22;7075;53.574;10.054;2022-12-18T15:53:43;-1.20;99.90
14000;DHT22;7075;53.574;10.054;2022-12-18T15:56:12;-1.10;99.90
14000;DHT22;7075;53.574;10.054;2022-12-18T15:58:56;-1.00;99.90
14000;DHT22;7075;53.574;10.054;2022-12-18T16:01:22;-0.90;99.90
14000;DHT22;7075;53.574;10.054;2022-12-18T16:03:48;-0.90;99.90
14000;DHT22;7075;53.574;10.054;2022-12-18T16:06:13;-1.00;99.90
14000;DHT22;7075;53.574;10.054;2022-12-18T16:08:39;-1.10;99.90
14000;DHT22;7075;53.574;10.054;2022-12-18T16:11:04;-1.00;99.90
14000;DHT22;7075;53.574;10.054;2022-12-18T16:13:30;-1.00;99.90
14000;DHT22;7075;53.574;10.054;2022-12-18T16:15:56;-1.00;99.90
14000;DHT22;7075;53.574;10.054;2022-12-18T16:18:22;-1.00;99.90
14000;DHT22;7075;53.574;10.054;2022-12-18T16:20:47;-1.10;99.90
14000;DHT22;7075;53.574;10.054;2022-12-18T16:23:13;-1.10;99.90
14000;DHT22;7075;53.574;10.054;2022-12-18T16:25:38;-1.00;99.90
14000;DHT22;7075;53.574;10.054;2022-12-18T16:28:04;-1.10;99.90
14000;DHT22;7075;53.574;10.054;2022-12-18T16:30:30;-1.10;99.90
14000;DHT22;7075;53.574;10.054;2022-12-18T16:32:57;-1.10;99.90
14000;DHT22;7075;53.574;10.054;2022-12-18T16:35:22;-1.20;99.90
14000;DHT22;7075;53.574;10.054;2022-12-18T16:37:48;-1.10;99.90
14000;DHT22;7075;53.574;10.054;2022-12-18T16:40:14;-1.10;99.90
14000;DHT22;7075;53.574;10.054;2022-12-18T16:42:40;-1.10;99.90
14000;DHT22;7075;53.574;10.054;2022-12-18T16:45:07;-1.10;99.90
14000;DHT22;7075;53.574;10.054;2022-12-18T16:47:33;-1.10;99.90
14000;DHT22;7075;53.574;10.054;2022-12-18T16:49:58;-1.00;99.90
14000;DHT22;7075;53.574;10.054;2022-12-18T16:52:24;-1.00;99.90
14000;DHT22;7075;53.574;10.054;2022-12-18T16:54:50;-1.00;99.90
14000;DHT22;7075;53.574;10.054;2022-12-18T16:57:16;-1.00;99.90
14000;DHT22;7075;53.574;10.054;2022-12-18T16:59:42;-1.00;99.90
14000;DHT22;7075;53.574;10.054;2022-12-18T17:02:18;-1.00;99.90
14000;DHT22;7075;53.574;10.054;2022-12-18T17:04:44;-1.00;99.90
14000;DHT22;7075;53.574;10.054;2022-12-18T17:07:09;-1.00;99.90